Terminal Aerodrome Forecast
Issued by NWS Cleveland, OH

Home | Current Version | Previous Version | Graphics & Text | Print | Product List | Glossary On
Versions: 1 2 3 4 5 6 7 8 9 10 11 12 13 14 15 16 17 18 19
000
FTUS41 KCLE 232300
TAFCAK
TAF
KCAK 232337Z 2400/2424 14007KT P6SM OVC015
     FM240330 14007KT 3SM -RA BR OVC007
     FM240700 14010KT 3SM -RA BR OVC004
     FM241200 16012KT 3SM BR OVC007
     FM241800 18015G25KT P6SM -SHRA OVC020
     FM242300 21020G35KT P6SM OVC025=

USA.gov is the U.S. government's official web portal to all federal, state and local government web resources and services.